Time;durP1;ratioP1;P1;durP2;ratioP2;P2;SDS_P1;SDS_P2;PMS_P1;PMS_P2;Temp;Humidity;BMP_temperature;BMP_pressure;BME280_temperature;BME280_humidity;BME280_pressure;Samples;Min_cycle;Max_cycle;Signal;HPM_P1;HPM_P2
2022/03/03 00:00:08;;;;;;;66.72;35.08;;;3.30;90.40;;;;;;6157239;22;88499;-72
2022/03/03 00:02:41;;;;;;;68.95;36.22;;;3.30;90.50;;;;;;6157295;22;88410;-72
2022/03/03 00:05:09;;;;;;;71.30;35.13;;;3.20;90.40;;;;;;6131010;22;89422;-69
2022/03/03 00:07:36;;;;;;;73.72;36.20;;;3.20;90.40;;;;;;6130030;22;91442;-68
2022/03/03 00:10:04;;;;;;;66.13;33.17;;;3.20;90.40;;;;;;6130737;22;89845;-69
2022/03/03 00:12:31;;;;;;;66.07;34.72;;;3.20;90.40;;;;;;6157130;22;88786;-72
2022/03/03 00:14:58;;;;;;;68.78;35.95;;;3.20;90.50;;;;;;6130962;22;89460;-69
2022/03/03 00:17:27;;;;;;;67.38;36.25;;;3.20;90.50;;;;;;6130362;22;91321;-69
2022/03/03 00:19:54;;;;;;;67.88;34.08;;;3.10;90.40;;;;;;6081898;22;88581;-69
2022/03/03 00:22:21;;;;;;;67.32;33.95;;;3.10;90.40;;;;;;6130459;22;91450;-72
2022/03/03 00:24:49;;;;;;;67.35;35.05;;;3.10;90.40;;;;;;6157172;22;89380;-69
2022/03/03 00:27:16;;;;;;;67.15;35.60;;;3.10;90.50;;;;;;6105970;22;91485;-69
2022/03/03 00:29:42;;;;;;;64.63;33.75;;;3.10;90.50;;;;;;6130245;22;90983;-69
2022/03/03 00:32:09;;;;;;;67.60;34.33;;;3.00;90.50;;;;;;6105946;22;91125;-69
2022/03/03 00:34:36;;;;;;;65.47;34.92;;;3.00;90.50;;;;;;6130837;22;94332;-72
2022/03/03 00:37:04;;;;;;;67.72;35.63;;;3.00;90.60;;;;;;6105951;22;91586;-72
2022/03/03 00:39:31;;;;;;;67.00;35.03;;;3.00;90.50;;;;;;6157315;22;88472;-72
2022/03/03 00:41:57;;;;;;;62.33;34.08;;;2.90;90.50;;;;;;6157254;22;89486;-69
2022/03/03 00:44:24;;;;;;;66.30;34.20;;;3.00;90.60;;;;;;6106303;22;88806;-69
2022/03/03 00:46:51;;;;;;;68.03;32.65;;;3.00;90.60;;;;;;6130002;22;91960;-72
2022/03/03 00:49:18;;;;;;;64.68;33.22;;;2.90;90.60;;;;;;6157424;22;88408;-69
2022/03/03 00:51:45;;;;;;;68.32;35.53;;;2.90;90.60;;;;;;6156983;22;88849;-69
2022/03/03 00:54:12;;;;;;;64.43;34.50;;;2.90;90.60;;;;;;6105873;22;91979;-69
2022/03/03 00:56:39;;;;;;;70.07;34.78;;;2.90;90.60;;;;;;6156643;22;97268;-68
2022/03/03 00:59:07;;;;;;;70.43;33.97;;;2.90;90.60;;;;;;6130460;22;88465;-69
2022/03/03 01:01:35;;;;;;;68.05;35.80;;;2.90;90.50;;;;;;6157559;22;88690;-72
2022/03/03 01:04:03;;;;;;;63.90;34.90;;;2.90;90.50;;;;;;6130307;22;91816;-69
2022/03/03 01:06:30;;;;;;;65.15;35.25;;;2.80;90.70;;;;;;6157009;22;88866;-72
2022/03/03 01:08:56;;;;;;;66.85;34.40;;;2.90;90.50;;;;;;6105239;22;91301;-72
2022/03/03 01:11:23;;;;;;;67.57;32.95;;;2.80;90.50;;;;;;6130482;22;91480;-72
2022/03/03 01:13:50;;;;;;;63.78;32.10;;;2.80;90.50;;;;;;6156902;22;89347;-68
2022/03/03 01:16:17;;;;;;;72.90;36.65;;;2.80;90.60;;;;;;6130273;22;90446;-69
2022/03/03 01:18:44;;;;;;;69.68;35.58;;;2.70;90.60;;;;;;6130251;22;93304;-72
2022/03/03 01:21:11;;;;;;;68.05;34.92;;;2.70;90.70;;;;;;6130719;22;88872;-69
2022/03/03 01:23:38;;;;;;;70.93;35.00;;;2.70;90.70;;;;;;6130036;22;91862;-69
2022/03/03 01:26:05;;;;;;;63.15;34.88;;;2.70;90.70;;;;;;6156651;22;88770;-69
2022/03/03 01:28:32;;;;;;;63.50;33.03;;;2.70;91.00;;;;;;6157096;22;88475;-69
2022/03/03 01:30:59;;;;;;;63.90;33.22;;;2.70;90.70;;;;;;6156630;22;89553;-69
2022/03/03 01:33:26;;;;;;;68.50;35.47;;;2.70;90.70;;;;;;6157129;22;89215;-69
2022/03/03 01:35:53;;;;;;;63.33;33.67;;;2.60;90.80;;;;;;6130174;22;88781;-72
2022/03/03 01:38:21;;;;;;;64.20;34.20;;;2.60;90.80;;;;;;6157052;22;88357;-72
2022/03/03 01:40:48;;;;;;;65.85;33.78;;;2.60;90.80;;;;;;6130175;22;88868;-72
2022/03/03 01:43:15;;;;;;;64.85;33.97;;;2.60;90.80;;;;;;6129502;22;99597;-69
2022/03/03 01:45:42;;;;;;;61.70;32.67;;;2.50;90.70;;;;;;6129771;22;88873;-69
2022/03/03 01:48:09;;;;;;;68.70;35.40;;;2.50;90.70;;;;;;6106012;22;89878;-69
2022/03/03 01:50:37;;;;;;;65.68;33.72;;;2.50;90.70;;;;;;6129974;22;91484;-69
2022/03/03 01:53:04;;;;;;;67.00;35.00;;;2.50;90.80;;;;;;6130061;22;89251;-69
2022/03/03 01:55:32;;;;;;;67.43;32.92;;;2.50;90.80;;;;;;6130256;22;89101;-69
2022/03/03 01:58:02;;;;;;;67.47;34.80;;;2.40;90.80;;;;;;6156596;22;88434;-69
2022/03/03 02:00:29;;;;;;;61.42;37.25;;;2.40;90.80;;;;;;6156710;22;92200;-69
2022/03/03 02:02:56;;;;;;;61.53;32.63;;;2.40;90.90;;;;;;6130155;22;89216;-72
2022/03/03 02:05:24;;;;;;;65.90;32.22;;;2.40;90.90;;;;;;6156763;22;88889;-69
2022/03/03 02:07:51;;;;;;;67.40;34.55;;;2.40;90.80;;;;;;6130009;22;88409;-72
2022/03/03 02:10:18;;;;;;;68.07;34.53;;;2.40;90.80;;;;;;6129525;22;98992;-72
2022/03/03 02:12:45;;;;;;;62.05;33.45;;;2.40;90.70;;;;;;6156639;22;89233;-69
2022/03/03 02:15:20;;;;;;;61.88;34.47;;;2.40;90.70;;;;;;6129948;22;91538;-68
2022/03/03 02:17:47;;;;;;;68.25;34.58;;;2.40;90.70;;;;;;6156520;22;88670;-72
2022/03/03 02:20:19;;;;;;;65.20;33.75;;;2.30;90.70;;;;;;6130072;22;89154;-71
2022/03/03 02:22:46;;;;;;;66.35;34.72;;;2.30;90.70;;;;;;6129787;22;92215;-72
2022/03/03 02:25:13;;;;;;;64.88;35.28;;;2.30;90.70;;;;;;6130255;22;88506;-72
2022/03/03 02:27:41;;;;;;;63.83;33.75;;;2.30;90.70;;;;;;6130203;22;88491;-72
2022/03/03 02:30:08;;;;;;;64.65;35.13;;;2.20;90.60;;;;;;6155745;22;101814;-72
2022/03/03 02:32:35;;;;;;;61.78;33.75;;;2.20;90.70;;;;;;6129380;22;98131;-72
2022/03/03 02:35:03;;;;;;;70.70;36.45;;;2.20;90.70;;;;;;6156310;22;89182;-72
2022/03/03 02:37:34;;;;;;;65.35;35.40;;;2.20;90.70;;;;;;6156847;22;88334;-72
2022/03/03 02:40:03;;;;;;;66.03;36.00;;;2.10;90.70;;;;;;6157515;22;88797;-72
2022/03/03 02:42:30;;;;;;;68.72;35.17;;;2.20;90.80;;;;;;6131320;22;89440;-72
2022/03/03 02:44:57;;;;;;;72.22;35.95;;;2.10;90.80;;;;;;6130527;22;90235;-72
2022/03/03 02:47:25;;;;;;;67.45;35.83;;;2.10;90.80;;;;;;6130752;22;90978;-69
2022/03/03 02:49:52;;;;;;;70.40;35.53;;;2.10;90.80;;;;;;6106178;22;91303;-71
2022/03/03 02:52:19;;;;;;;70.40;34.72;;;2.00;90.80;;;;;;6131098;22;92136;-69
2022/03/03 02:54:46;;;;;;;73.20;36.13;;;2.00;90.90;;;;;;6131517;22;88359;-69
2022/03/03 02:59:58;;;;;;;64.22;34.75;;;2.00;90.90;;;;;;6157554;22;88728;-69
2022/03/03 03:02:25;;;;;;;66.55;35.05;;;1.90;90.90;;;;;;6155564;22;105345;-68
2022/03/03 03:04:52;;;;;;;61.35;32.50;;;1.90;91.00;;;;;;6157550;22;88692;-68
2022/03/03 03:07:19;;;;;;;68.32;35.50;;;1.90;91.00;;;;;;6131008;22;91051;-69
2022/03/03 03:09:46;;;;;;;66.80;36.15;;;1.90;91.00;;;;;;6105696;22;92187;-69
2022/03/03 03:12:13;;;;;;;66.38;35.38;;;1.90;91.00;;;;;;6157462;22;88391;-68
2022/03/03 03:14:40;;;;;;;67.90;34.75;;;1.80;91.00;;;;;;6157681;22;88835;-69
2022/03/03 03:17:07;;;;;;;64.15;35.08;;;1.80;91.10;;;;;;6157567;22;88748;-69
2022/03/03 03:19:34;;;;;;;59.35;32.30;;;1.80;91.10;;;;;;6130590;22;91254;-69
2022/03/03 03:22:02;;;;;;;58.58;32.35;;;1.70;91.10;;;;;;6157430;22;89218;-69
2022/03/03 03:24:28;;;;;;;64.85;34.72;;;1.70;91.10;;;;;;6131526;22;89512;-69
2022/03/03 03:26:55;;;;;;;63.85;32.83;;;1.70;91.10;;;;;;6157652;22;88454;-69
2022/03/03 03:29:22;;;;;;;68.30;35.80;;;1.70;91.10;;;;;;6131210;22;88751;-69
2022/03/03 03:31:49;;;;;;;60.95;32.60;;;1.70;91.00;;;;;;6131235;22;89370;-72
2022/03/03 03:34:16;;;;;;;61.65;34.47;;;1.70;91.00;;;;;;6130369;22;91215;-69
2022/03/03 03:36:43;;;;;;;55.70;32.00;;;1.60;91.00;;;;;;6131021;22;90793;-68
2022/03/03 03:39:10;;;;;;;66.65;35.08;;;1.60;91.00;;;;;;6130919;22;88689;-72
2022/03/03 03:41:37;;;;;;;66.88;34.10;;;1.60;91.00;;;;;;6156971;22;103867;-72
2022/03/03 03:44:04;;;;;;;60.70;33.88;;;1.60;90.90;;;;;;6130959;22;88802;-72
2022/03/03 03:46:31;;;;;;;62.28;33.67;;;1.60;90.90;;;;;;6157340;22;88470;-68
2022/03/03 03:48:58;;;;;;;60.97;32.22;;;1.60;90.90;;;;;;6130151;22;89748;-72
2022/03/03 03:51:25;;;;;;;57.78;32.85;;;1.60;90.90;;;;;;6131230;22;89424;-72
2022/03/03 03:53:52;;;;;;;60.70;32.03;;;1.60;90.90;;;;;;6157661;22;88917;-72
2022/03/03 03:56:19;;;;;;;61.65;30.83;;;1.60;91.00;;;;;;6157365;22;88441;-69
2022/03/03 03:58:46;;;;;;;57.47;30.92;;;1.60;90.90;;;;;;6130419;22;91997;-69
2022/03/03 04:01:13;;;;;;;56.67;30.08;;;1.60;90.80;;;;;;6157101;22;89246;-69
2022/03/03 04:03:40;;;;;;;48.47;26.10;;;1.60;90.80;;;;;;6157510;22;88526;-68
2022/03/03 04:06:07;;;;;;;45.13;25.45;;;1.60;90.70;;;;;;6129594;22;90973;-69
2022/03/03 04:08:34;;;;;;;56.15;32.33;;;1.50;90.60;;;;;;6157500;22;88526;-68
2022/03/03 04:11:02;;;;;;;52.80;29.30;;;1.60;90.60;;;;;;6105605;22;90366;-69
2022/03/03 04:13:29;;;;;;;56.08;30.10;;;1.60;90.60;;;;;;6157605;22;89562;-69
2022/03/03 04:15:56;;;;;;;56.78;31.98;;;1.60;90.50;;;;;;6157779;22;88460;-69
2022/03/03 04:18:23;;;;;;;54.90;30.52;;;1.50;90.50;;;;;;6130645;22;88655;-69
2022/03/03 04:20:50;;;;;;;55.67;30.33;;;1.60;90.50;;;;;;6157417;22;88761;-68
2022/03/03 04:23:19;;;;;;;54.58;31.02;;;1.60;90.40;;;;;;6130646;22;88760;-69
2022/03/03 04:25:46;;;;;;;52.88;30.20;;;1.60;90.30;;;;;;6130711;22;90927;-68
2022/03/03 04:28:13;;;;;;;51.70;28.48;;;1.60;90.30;;;;;;6130817;22;88836;-69
2022/03/03 04:30:40;;;;;;;55.45;29.35;;;1.60;90.20;;;;;;6131066;22;89322;-68
2022/03/03 04:33:07;;;;;;;47.00;27.83;;;1.60;90.20;;;;;;6157224;22;88676;-68
2022/03/03 04:35:33;;;;;;;55.50;29.95;;;1.50;90.10;;;;;;6157368;22;88456;-69
2022/03/03 04:38:01;;;;;;;51.05;31.02;;;1.50;90.10;;;;;;6130817;22;88782;-69
2022/03/03 04:40:27;;;;;;;46.05;27.10;;;1.50;90.10;;;;;;6106133;22;92687;-68
2022/03/03 04:42:54;;;;;;;51.28;28.10;;;1.50;90.10;;;;;;6130557;22;90185;-68
2022/03/03 04:45:21;;;;;;;50.78;28.92;;;1.50;90.10;;;;;;6130729;22;88338;-71
2022/03/03 04:47:49;;;;;;;51.28;30.50;;;1.50;90.00;;;;;;6156967;22;89420;-68
2022/03/03 04:50:16;;;;;;;48.67;29.27;;;1.50;90.10;;;;;;6130245;22;91838;-68
2022/03/03 04:52:43;;;;;;;55.17;31.52;;;1.50;90.00;;;;;;6104834;22;111347;-69
2022/03/03 04:55:10;;;;;;;50.10;29.40;;;1.50;90.00;;;;;;6157187;22;88337;-68
2022/03/03 04:57:37;;;;;;;52.63;31.08;;;1.50;89.90;;;;;;6130275;22;90451;-68
2022/03/03 05:00:06;;;;;;;47.38;28.50;;;1.40;89.80;;;;;;6129769;22;97261;-69
2022/03/03 05:02:34;;;;;;;55.45;31.20;;;1.40;90.00;;;;;;6157176;22;88955;-71
2022/03/03 05:05:01;;;;;;;53.58;31.02;;;1.40;90.00;;;;;;6157681;22;89283;-71
2022/03/03 05:07:28;;;;;;;51.92;28.17;;;1.30;90.00;;;;;;6130215;22;91333;-71
2022/03/03 05:09:55;;;;;;;51.17;31.80;;;1.30;90.00;;;;;;6157227;22;89423;-71
2022/03/03 05:12:22;;;;;;;55.67;30.73;;;1.30;90.10;;;;;;6130120;22;101136;-69
2022/03/03 05:14:50;;;;;;;50.15;30.17;;;1.30;90.10;;;;;;6130749;22;88820;-72
2022/03/03 05:17:16;;;;;;;52.78;29.35;;;1.30;90.10;;;;;;6157029;22;88795;-68
2022/03/03 05:19:43;;;;;;;53.38;30.55;;;1.20;90.10;;;;;;6130674;22;91699;-68
2022/03/03 05:22:11;;;;;;;50.20;29.85;;;1.20;90.20;;;;;;6156808;22;88857;-68
2022/03/03 05:24:38;;;;;;;51.03;29.25;;;1.20;90.10;;;;;;6157236;22;88424;-71
2022/03/03 05:27:05;;;;;;;55.55;31.38;;;1.20;90.10;;;;;;6130710;22;88833;-68
2022/03/03 05:29:32;;;;;;;51.50;28.35;;;1.20;90.10;;;;;;6130263;22;91842;-68
2022/03/03 05:31:59;;;;;;;53.10;29.98;;;1.20;90.10;;;;;;6155412;22;91472;-69
2022/03/03 05:34:27;;;;;;;51.67;29.40;;;1.20;90.20;;;;;;6156852;22;88399;-69
2022/03/03 05:36:54;;;;;;;52.75;30.98;;;1.20;90.20;;;;;;6129896;22;92063;-69
2022/03/03 05:39:23;;;;;;;49.63;29.23;;;1.20;90.10;;;;;;6156721;22;89414;-68
2022/03/03 05:41:53;;;;;;;50.38;28.67;;;1.10;90.10;;;;;;6156854;22;89057;-68
2022/03/03 05:44:21;;;;;;;57.05;30.55;;;1.10;90.10;;;;;;6130396;22;88700;-68
2022/03/03 05:46:48;;;;;;;55.58;30.67;;;1.20;90.10;;;;;;6129341;22;100433;-69
2022/03/03 05:49:18;;;;;;;48.05;29.27;;;1.10;90.10;;;;;;6104880;22;92000;-69
2022/03/03 05:51:45;;;;;;;47.78;28.70;;;1.10;90.10;;;;;;6156979;22;88759;-68
2022/03/03 05:54:12;;;;;;;53.67;29.17;;;1.10;90.20;;;;;;6156890;22;88510;-68
2022/03/03 05:56:45;;;;;;;53.97;31.73;;;1.10;90.20;;;;;;6130570;22;88743;-68
2022/03/03 05:59:14;;;;;;;51.58;29.70;;;1.10;90.30;;;;;;6156940;22;89924;-69
2022/03/03 06:01:42;;;;;;;50.92;28.95;;;1.10;90.30;;;;;;6156501;22;88925;-69
2022/03/03 06:04:13;;;;;;;48.90;28.88;;;1.00;90.20;;;;;;6105386;22;91397;-69
2022/03/03 06:07:01;;;;;;;52.13;31.42;;;1.00;90.30;;;;;;6156426;22;88489;-69
2022/03/03 06:09:32;;;;;;;51.70;27.58;;;1.00;90.30;;;;;;6105084;22;91853;-68
2022/03/03 06:12:28;;;;;;;48.40;29.20;;;1.00;90.30;;;;;;6130885;22;88794;-68
2022/03/03 06:15:01;;;;;;;53.92;31.20;;;1.00;90.30;;;;;;6155241;22;88836;-68
2022/03/03 06:17:30;;;;;;;46.40;28.35;;;1.00;90.30;;;;;;6131359;22;88768;-71
2022/03/03 06:20:01;;;;;;;48.47;28.88;;;1.00;90.30;;;;;;6130864;22;90426;-71
2022/03/03 06:22:29;;;;;;;51.33;30.38;;;1.00;90.30;;;;;;6130601;22;91945;-68
2022/03/03 06:24:56;;;;;;;49.95;30.42;;;1.00;90.40;;;;;;6131016;22;90806;-71
2022/03/03 06:27:29;;;;;;;49.30;28.45;;;1.00;90.50;;;;;;6130264;22;90627;-71
2022/03/03 06:29:56;;;;;;;46.20;26.38;;;1.00;90.50;;;;;;6131692;22;89311;-69
2022/03/03 06:32:24;;;;;;;50.65;30.83;;;1.00;90.50;;;;;;6106750;22;88506;-71
2022/03/03 06:34:51;;;;;;;48.90;29.80;;;1.10;90.50;;;;;;6131352;22;88434;-72
2022/03/03 06:37:18;;;;;;;48.72;28.88;;;1.30;90.40;;;;;;6157653;22;88953;-71
2022/03/03 06:39:45;;;;;;;45.72;28.48;;;1.30;90.10;;;;;;6157982;22;89399;-71
2022/03/03 06:42:12;;;;;;;45.92;28.27;;;1.40;90.00;;;;;;6157798;22;88394;-68
2022/03/03 06:44:39;;;;;;;47.67;27.65;;;1.50;90.00;;;;;;6131270;22;88490;-68
2022/03/03 06:47:06;;;;;;;42.60;27.65;;;1.50;89.70;;;;;;6157491;22;88535;-69
2022/03/03 06:49:33;;;;;;;47.03;27.48;;;1.60;89.30;;;;;;6106518;22;89219;-69
2022/03/03 06:52:02;;;;;;;41.83;25.92;;;1.70;89.00;;;;;;6130610;22;91570;-69
2022/03/03 06:54:32;;;;;;;43.90;26.48;;;1.80;88.60;;;;;;6157758;22;88789;-69
2022/03/03 06:56:59;;;;;;;44.17;27.35;;;1.90;88.60;;;;;;6131305;22;88808;-69
2022/03/03 06:59:28;;;;;;;46.13;28.20;;;1.90;88.00;;;;;;6106467;22;89302;-68
2022/03/03 07:01:59;;;;;;;49.28;28.50;;;2.00;88.00;;;;;;6157553;22;88787;-69
2022/03/03 07:04:28;;;;;;;48.20;27.40;;;2.00;88.00;;;;;;6157461;22;88423;-69
2022/03/03 07:06:56;;;;;;;44.40;26.98;;;2.10;88.00;;;;;;6128989;22;93270;-68
2022/03/03 07:09:23;;;;;;;37.80;24.42;;;2.30;87.80;;;;;;6128278;22;95567;-68
2022/03/03 07:11:51;;;;;;;41.42;27.73;;;2.30;87.30;;;;;;6155212;22;92291;-69
2022/03/03 07:14:18;;;;;;;40.72;24.75;;;2.50;86.90;;;;;;6155111;22;92348;-69
2022/03/03 07:17:05;;;;;;;44.00;29.05;;;2.60;86.50;;;;;;6101585;22;98165;-68
2022/03/03 07:19:32;;;;;;;43.63;28.95;;;2.70;86.10;;;;;;6127553;22;98065;-69
2022/03/03 07:22:06;;;;;;;36.50;25.83;;;2.90;85.80;;;;;;6128573;22;92482;-69
2022/03/03 07:24:34;;;;;;;36.50;26.70;;;3.10;85.20;;;;;;6154608;22;92361;-69
2022/03/03 07:27:04;;;;;;;36.65;23.60;;;3.30;84.20;;;;;;6154927;22;92971;-69
2022/03/03 07:29:34;;;;;;;38.85;25.63;;;3.60;83.50;;;;;;6154683;22;93080;-69
2022/03/03 07:32:08;;;;;;;40.72;26.33;;;3.80;82.90;;;;;;6103666;22;92852;-69
2022/03/03 07:34:36;;;;;;;;;;;3.90;82.20;;;;;;6128791;22;91761;-69
2022/03/03 07:37:10;;;;;;;42.20;25.55;;;4.00;81.30;;;;;;6130067;22;95498;-69
2022/03/03 07:39:46;;;;;;;;;;;4.10;81.20;;;;;;6128784;22;92912;-69
2022/03/03 07:42:17;;;;;;;40.47;26.33;;;4.10;80.80;;;;;;6155552;22;94748;-69
2022/03/03 07:44:47;;;;;;;39.30;24.67;;;4.10;80.80;;;;;;6154886;22;92385;-69
2022/03/03 07:47:14;;;;;;;42.72;27.55;;;4.10;81.00;;;;;;6154381;22;94929;-69
2022/03/03 07:49:45;;;;;;;41.75;27.08;;;4.10;80.60;;;;;;6128255;22;93010;-70
2022/03/03 07:52:12;;;;;;;38.85;25.05;;;4.10;80.40;;;;;;6128737;22;92828;-69
2022/03/03 07:54:39;;;;;;;39.47;26.23;;;4.20;80.50;;;;;;6154829;22;92428;-68
2022/03/03 07:57:10;;;;;;;42.47;28.00;;;4.30;80.30;;;;;;6154282;22;106576;-68
2022/03/03 07:59:41;;;;;;;43.40;28.73;;;4.40;80.00;;;;;;6155093;22;92983;-68
2022/03/03 08:02:07;;;;;;;42.85;28.33;;;4.50;79.60;;;;;;6127126;22;104705;-69
2022/03/03 08:04:35;;;;;;;39.03;28.67;;;4.60;79.20;;;;;;6154796;22;92443;-69
2022/03/03 08:07:09;;;;;;;38.00;26.52;;;4.70;79.10;;;;;;6153213;22;95666;-69
2022/03/03 08:09:38;;;;;;;39.10;28.08;;;5.00;78.30;;;;;;6154331;22;95331;-69
2022/03/03 08:12:07;;;;;;;38.78;29.45;;;5.30;77.90;;;;;;6155075;22;92374;-72
2022/03/03 08:14:35;;;;;;;39.10;32.97;;;5.70;76.90;;;;;;6128387;22;92740;-72
2022/03/03 08:17:03;;;;;;;39.72;34.33;;;6.10;75.90;;;;;;6154791;22;92997;-72
2022/03/03 08:19:31;;;;;;;35.05;31.55;;;6.60;74.10;;;;;;6154903;22;93122;-72
2022/03/03 08:21:58;;;;;;;39.47;34.70;;;7.00;72.40;;;;;;6154891;22;92442;-69
2022/03/03 08:24:26;;;;;;;39.55;35.17;;;7.40;70.60;;;;;;6155318;22;91632;-69
2022/03/03 08:26:56;;;;;;;36.42;32.55;;;7.70;69.30;;;;;;6154269;22;93284;-69
2022/03/03 08:29:24;;;;;;;34.35;24.67;;;7.90;67.90;;;;;;6128252;22;94458;-69
2022/03/03 08:31:57;;;;;;;35.80;25.27;;;8.10;67.40;;;;;;6126164;22;94742;-69
2022/03/03 08:34:33;;;;;;;33.63;24.50;;;8.00;66.40;;;;;;6154911;22;92395;-69
2022/03/03 08:37:06;;;;;;;33.13;22.52;;;7.90;65.90;;;;;;6127751;22;95965;-69
2022/03/03 08:39:38;;;;;;;32.57;24.73;;;7.60;66.40;;;;;;6127671;22;95724;-69
2022/03/03 08:42:08;;;;;;;35.55;25.27;;;7.40;66.80;;;;;;6154782;22;92285;-69
2022/03/03 08:44:51;;;;;;;36.13;23.95;;;7.20;67.30;;;;;;6128002;22;92409;-69
2022/03/03 08:47:21;;;;;;;34.33;22.98;;;7.00;68.30;;;;;;6154342;22;93590;-72
2022/03/03 08:49:59;;;;;;;35.92;24.13;;;6.70;68.60;;;;;;6154828;22;93108;-72
2022/03/03 08:52:46;;;;;;;34.63;24.17;;;6.60;69.40;;;;;;6154708;22;92813;-72
2022/03/03 08:55:15;;;;;;;33.58;23.27;;;6.30;69.50;;;;;;6154920;22;92407;-72
2022/03/03 08:57:42;;;;;;;35.80;22.85;;;6.20;70.00;;;;;;6152924;22;95450;-72
2022/03/03 09:00:11;;;;;;;34.75;23.20;;;6.10;70.70;;;;;;6127902;22;94029;-72
2022/03/03 09:02:40;;;;;;;32.20;22.70;;;6.00;71.00;;;;;;6154402;22;92403;-72
2022/03/03 09:05:09;;;;;;;31.83;18.52;;;6.00;71.50;;;;;;6127833;22;92453;-72
2022/03/03 09:07:36;;;;;;;33.58;23.42;;;5.90;71.90;;;;;;6128056;22;92479;-72
2022/03/03 09:10:05;;;;;;;35.55;23.98;;;5.80;71.90;;;;;;6103557;22;93093;-72
2022/03/03 09:12:32;;;;;;;36.40;26.13;;;5.80;71.90;;;;;;6103168;22;92869;-72
2022/03/03 09:14:59;;;;;;;31.45;21.63;;;5.80;72.40;;;;;;6127952;22;91812;-68
2022/03/03 09:17:31;;;;;;;31.02;21.08;;;5.80;72.50;;;;;;6154561;22;92965;-69
2022/03/03 09:20:00;;;;;;;31.98;21.10;;;5.80;72.20;;;;;;6154238;22;93097;-68
2022/03/03 09:22:28;;;;;;;31.40;21.25;;;5.80;72.20;;;;;;6153103;22;94772;-69
2022/03/03 09:24:56;;;;;;;29.83;19.13;;;5.90;71.60;;;;;;6154495;22;92864;-68
2022/03/03 09:27:23;;;;;;;33.25;21.30;;;5.90;71.60;;;;;;6153783;22;109130;-70
2022/03/03 09:29:51;;;;;;;30.67;20.30;;;6.00;71.40;;;;;;6102893;22;95792;-69
2022/03/03 09:32:18;;;;;;;29.45;20.52;;;6.10;71.10;;;;;;6154715;22;92390;-70
2022/03/03 09:34:46;;;;;;;29.83;20.00;;;6.10;71.30;;;;;;6127345;22;92443;-70
2022/03/03 09:37:13;;;;;;;26.10;19.35;;;6.20;71.10;;;;;;6154399;22;93079;-70
2022/03/03 09:39:41;;;;;;;24.48;18.17;;;6.20;70.60;;;;;;6128039;22;92991;-69
2022/03/03 09:42:09;;;;;;;25.40;18.23;;;6.30;70.50;;;;;;6154392;22;94325;-69
2022/03/03 09:44:36;;;;;;;27.20;19.42;;;6.40;70.10;;;;;;6128094;22;92427;-70
2022/03/03 09:47:03;;;;;;;28.45;19.58;;;6.40;68.80;;;;;;6151262;22;98750;-70
2022/03/03 09:49:31;;;;;;;25.35;18.92;;;6.50;69.60;;;;;;6153990;22;95405;-70
2022/03/03 09:51:58;;;;;;;28.48;18.75;;;6.60;69.50;;;;;;6127082;22;94205;-70
2022/03/03 09:54:24;;;;;;;26.17;17.92;;;6.70;69.50;;;;;;6128032;22;92366;-73
2022/03/03 09:56:52;;;;;;;36.25;25.15;;;6.70;68.30;;;;;;6154018;22;93013;-73
2022/03/03 09:59:19;;;;;;;26.35;18.63;;;6.80;69.00;;;;;;6154244;22;92984;-73
2022/03/03 10:01:46;;;;;;;25.58;16.48;;;6.90;68.00;;;;;;6127689;22;92397;-73
2022/03/03 10:04:21;;;;;;;26.17;19.05;;;7.00;67.40;;;;;;6128296;22;92069;-70
2022/03/03 10:06:49;;;;;;;23.83;17.73;;;7.10;66.90;;;;;;6153953;22;92418;-73
2022/03/03 10:09:17;;;;;;;24.48;16.00;;;7.20;66.30;;;;;;6153641;22;104118;-70
2022/03/03 10:11:47;;;;;;;25.05;17.98;;;7.30;65.30;;;;;;6126046;22;94814;-73
2022/03/03 10:14:31;;;;;;;22.95;17.65;;;7.40;65.10;;;;;;6154218;22;92441;-69
2022/03/03 10:16:58;;;;;;;23.42;17.58;;;7.50;64.30;;;;;;6154026;22;93150;-73
2022/03/03 10:20:02;;;;;;;22.35;17.55;;;7.50;64.10;;;;;;6154096;22;93163;-70
2022/03/03 10:22:44;;;;;;;23.13;17.70;;;7.60;64.20;;;;;;6127324;22;92437;-73
2022/03/03 10:25:13;;;;;;;42.47;35.33;;;7.70;63.30;;;;;;6154150;22;92305;-73
2022/03/03 10:27:41;;;;;;;24.70;17.45;;;7.80;63.80;;;;;;6154112;22;93223;-70
2022/03/03 10:30:09;;;;;;;22.30;16.55;;;7.80;63.70;;;;;;6127588;22;92900;-70
2022/03/03 10:32:38;;;;;;;25.52;18.48;;;8.00;64.00;;;;;;6152252;22;92469;-73
2022/03/03 10:35:17;;;;;;;26.13;18.73;;;8.00;63.80;;;;;;6153958;22;93266;-73
2022/03/03 10:37:45;;;;;;;26.88;16.73;;;8.10;63.80;;;;;;6152358;22;95523;-73
2022/03/03 10:40:16;;;;;;;23.40;17.15;;;8.20;64.00;;;;;;6153643;22;97281;-69
2022/03/03 10:42:50;;;;;;;21.42;16.85;;;8.30;64.40;;;;;;6127276;22;92356;-73
2022/03/03 10:45:19;;;;;;;23.15;17.65;;;8.40;63.50;;;;;;6128145;22;92358;-70
2022/03/03 10:48:00;;;;;;;22.17;16.25;;;8.40;61.80;;;;;;6153468;22;92846;-73
2022/03/03 10:50:44;;;;;;;26.10;17.42;;;8.50;62.00;;;;;;6126931;22;96005;-70
2022/03/03 10:53:11;;;;;;;22.38;16.83;;;8.50;62.00;;;;;;6153568;22;92289;-70
2022/03/03 10:55:38;;;;;;;22.83;17.02;;;8.50;61.70;;;;;;6127308;22;92274;-70
2022/03/03 10:58:06;;;;;;;22.67;18.48;;;8.50;62.30;;;;;;6126303;22;94126;-73
2022/03/03 11:00:38;;;;;;;22.92;17.33;;;8.60;62.40;;;;;;6128698;22;93126;-73
2022/03/03 11:03:06;;;;;;;22.67;16.73;;;8.70;62.30;;;;;;6128209;22;94732;-73
2022/03/03 11:05:34;;;;;;;22.65;17.50;;;8.70;62.30;;;;;;6155414;22;92423;-70
2022/03/03 11:08:01;;;;;;;22.45;17.70;;;8.70;61.20;;;;;;6103437;22;95814;-70
2022/03/03 11:10:30;;;;;;;26.10;18.08;;;8.80;60.50;;;;;;6155223;22;92924;-73
2022/03/03 11:12:57;;;;;;;22.20;17.05;;;8.80;60.00;;;;;;6155052;22;92396;-70
2022/03/03 11:15:26;;;;;;;27.77;18.20;;;8.80;60.90;;;;;;6155305;22;92434;-70
2022/03/03 11:17:55;;;;;;;21.33;16.15;;;8.90;62.20;;;;;;6128209;22;93048;-73
2022/03/03 11:20:23;;;;;;;26.30;20.05;;;8.90;62.50;;;;;;6155644;22;92984;-70
2022/03/03 11:22:55;;;;;;;24.35;19.30;;;9.10;62.50;;;;;;6128234;22;92377;-70
2022/03/03 11:25:31;;;;;;;22.45;16.17;;;9.10;61.00;;;;;;6155310;22;92383;-73
2022/03/03 11:28:07;;;;;;;25.58;19.10;;;9.10;60.90;;;;;;6153367;22;96002;-70
2022/03/03 11:30:35;;;;;;;26.48;19.60;;;9.20;61.00;;;;;;6154986;22;95933;-73
2022/03/03 11:33:22;;;;;;;22.75;18.05;;;9.20;61.40;;;;;;6154647;22;96528;-70
2022/03/03 11:35:56;;;;;;;26.08;19.63;;;9.20;61.80;;;;;;6154999;22;92348;-73
2022/03/03 11:38:45;;;;;;;24.30;19.77;;;9.30;61.20;;;;;;6128673;22;93189;-70
2022/03/03 11:41:13;;;;;;;24.30;17.05;;;9.30;60.60;;;;;;6154564;22;93150;-73
2022/03/03 11:43:48;;;;;;;23.73;18.30;;;9.30;60.00;;;;;;6154979;22;92883;-73
2022/03/03 11:46:50;;;;;;;25.08;19.65;;;9.30;60.10;;;;;;6128445;22;91653;-73
2022/03/03 11:49:26;;;;;;;23.10;18.05;;;9.50;60.50;;;;;;6154603;22;93171;-70
2022/03/03 11:52:07;;;;;;;25.23;19.33;;;9.40;60.00;;;;;;6128123;22;95733;-73
2022/03/03 11:54:34;;;;;;;20.73;16.25;;;9.50;60.00;;;;;;6126634;22;94792;-73
2022/03/03 11:57:04;;;;;;;23.27;16.50;;;9.50;59.40;;;;;;6103089;22;92336;-73
2022/03/03 11:59:35;;;;;;;21.48;16.52;;;9.50;59.10;;;;;;6154761;22;93011;-73
2022/03/03 12:02:02;;;;;;;25.60;18.95;;;9.60;59.10;;;;;;6128129;22;93061;-73
2022/03/03 12:04:30;;;;;;;27.33;17.20;;;9.60;58.60;;;;;;6127655;22;99802;-70
2022/03/03 12:06:57;;;;;;;22.17;15.90;;;9.60;58.90;;;;;;6154895;22;92463;-73
2022/03/03 12:09:30;;;;;;;22.00;18.00;;;9.60;58.30;;;;;;6154519;22;93218;-73
2022/03/03 12:12:11;;;;;;;21.67;17.25;;;9.70;58.10;;;;;;6155158;22;92844;-73
2022/03/03 12:14:49;;;;;;;21.92;16.85;;;9.70;58.20;;;;;;6155134;22;92443;-73
2022/03/03 12:17:43;;;;;;;23.33;18.13;;;9.70;59.10;;;;;;6127989;22;92393;-70
2022/03/03 12:20:32;;;;;;;23.20;17.88;;;9.90;58.20;;;;;;6126308;22;96513;-73
2022/03/03 12:23:39;;;;;;;24.65;17.40;;;9.90;57.70;;;;;;6153872;22;95436;-73
2022/03/03 12:26:07;;;;;;;24.33;18.35;;;10.00;58.50;;;;;;6127950;22;92321;-73
2022/03/03 12:28:39;;;;;;;24.55;20.70;;;10.00;58.70;;;;;;6127884;22;92432;-70
2022/03/03 12:31:27;;;;;;;23.77;18.23;;;10.00;57.70;;;;;;6154481;22;92386;-70
2022/03/03 12:34:02;;;;;;;19.38;15.65;;;10.10;57.70;;;;;;6103393;22;95502;-73
2022/03/03 12:36:37;;;;;;;24.30;16.95;;;10.10;57.50;;;;;;6154919;22;92347;-73
2022/03/03 12:39:06;;;;;;;29.58;23.00;;;10.10;58.30;;;;;;6104022;22;91692;-73
2022/03/03 12:41:35;;;;;;;23.48;16.60;;;10.20;57.90;;;;;;6128452;22;93129;-70
2022/03/03 12:44:14;;;;;;;28.75;21.75;;;10.20;56.80;;;;;;6154280;22;92360;-73
2022/03/03 12:46:43;;;;;;;20.45;16.50;;;10.30;57.00;;;;;;6126511;22;94960;-70
2022/03/03 12:49:13;;;;;;;23.13;17.80;;;10.30;57.30;;;;;;6127731;22;92444;-73